Time;durP1;ratioP1;P1;durP2;ratioP2;P2;SDS_P1;SDS_P2;PMS_P1;PMS_P2;Temp;Humidity;BMP_temperature;BMP_pressure;BME280_temperature;BME280_humidity;BME280_pressure;Samples;Min_cycle;Max_cycle;Signal;HPM_P1;HPM_P2
2022/04/23 00:02:10;;;;;;;5.28;3.78;;;;;;;;;;7395015;19;20010;-80
2022/04/23 00:04:36;;;;;;;5.03;3.75;;;;;;;;;;7393116;19;20023;-81
2022/04/23 00:07:02;;;;;;;6.47;3.47;;;;;;;;;;7397908;19;20500;-81
2022/04/23 00:09:27;;;;;;;9.80;4.03;;;;;;;;;;7394565;19;20003;-81
2022/04/23 00:11:55;;;;;;;5.32;3.67;;;;;;;;;;7391582;19;20037;-82
2022/04/23 00:14:20;;;;;;;5.32;4.00;;;;;;;;;;7391061;19;20017;-80
2022/04/23 00:16:46;;;;;;;4.68;3.30;;;;;;;;;;7389890;19;20077;-80
2022/04/23 00:19:11;;;;;;;4.22;3.33;;;;;;;;;;7394389;19;20104;-82
2022/04/23 00:21:36;;;;;;;4.38;3.20;;;;;;;;;;7393267;19;20010;-81
2022/04/23 00:24:03;;;;;;;5.05;3.55;;;;;;;;;;7394334;19;20030;-80
2022/04/23 00:26:29;;;;;;;5.20;3.72;;;;;;;;;;7392853;19;20018;-82
2022/04/23 00:28:54;;;;;;;4.47;3.58;;;;;;;;;;7395029;19;20035;-80
2022/04/23 00:31:19;;;;;;;4.70;3.45;;;;;;;;;;7393834;19;20018;-82
2022/04/23 00:33:44;;;;;;;4.50;3.60;;;;;;;;;;7390319;19;20006;-82
2022/04/23 00:36:11;;;;;;;5.85;4.03;;;;;;;;;;7395292;19;20078;-82
2022/04/23 00:38:39;;;;;;;5.15;3.72;;;;;;;;;;7395176;19;20062;-80
2022/04/23 00:41:05;;;;;;;4.95;3.65;;;;;;;;;;7395436;19;20014;-81
2022/04/23 00:43:33;;;;;;;4.97;3.83;;;;;;;;;;7390455;19;20011;-81
2022/04/23 00:45:59;;;;;;;5.15;3.83;;;;;;;;;;7393977;19;20015;-81
2022/04/23 00:48:26;;;;;;;4.93;3.42;;;;;;;;;;7393641;19;20006;-80
2022/04/23 00:50:53;;;;;;;5.88;3.78;;;;;;;;;;7391450;19;20484;-81
2022/04/23 00:53:19;;;;;;;4.97;3.45;;;;;;;;;;7392967;19;20011;-81
2022/04/23 00:55:46;;;;;;;6.18;4.15;;;;;;;;;;7395559;19;20010;-82
2022/04/23 00:58:13;;;;;;;5.68;3.95;;;;;;;;;;7394300;19;20010;-80
2022/04/23 01:00:40;;;;;;;4.68;3.78;;;;;;;;;;7393094;19;20002;-81
2022/04/23 01:03:06;;;;;;;4.85;3.58;;;;;;;;;;7390789;19;20018;-79
2022/04/23 01:05:31;;;;;;;5.95;3.83;;;;;;;;;;7392519;19;20016;-80
2022/04/23 01:08:02;;;;;;;6.82;4.00;;;;;;;;;;7395215;19;20086;-82
2022/04/23 01:10:29;;;;;;;4.55;3.28;;;;;;;;;;7390776;19;20021;-81
2022/04/23 01:12:54;;;;;;;4.40;3.28;;;;;;;;;;7391233;19;20021;-82
2022/04/23 01:15:21;;;;;;;5.32;3.75;;;;;;;;;;7393328;19;20010;-82
2022/04/23 01:17:47;;;;;;;5.35;3.38;;;;;;;;;;7395433;19;19999;-81
2022/04/23 01:20:14;;;;;;;5.32;3.83;;;;;;;;;;7392620;19;20069;-81
2022/04/23 01:22:41;;;;;;;5.28;4.03;;;;;;;;;;7389909;19;20325;-82
2022/04/23 01:25:10;;;;;;;6.00;3.83;;;;;;;;;;7391948;19;20018;-81
2022/04/23 01:27:36;;;;;;;5.35;3.58;;;;;;;;;;7396162;19;20006;-82
2022/04/23 01:30:01;;;;;;;5.80;3.63;;;;;;;;;;7399068;19;20017;-82
2022/04/23 01:32:27;;;;;;;4.45;3.47;;;;;;;;;;7401253;19;20011;-82
2022/04/23 01:34:52;;;;;;;5.43;3.90;;;;;;;;;;7401335;19;20011;-80
2022/04/23 01:37:18;;;;;;;5.25;3.95;;;;;;;;;;7400176;19;20038;-81
2022/04/23 01:39:49;;;;;;;5.40;3.80;;;;;;;;;;7402005;19;20046;-82
2022/04/23 01:42:19;;;;;;;5.15;3.65;;;;;;;;;;7399423;19;20018;-79
2022/04/23 01:44:49;;;;;;;5.63;3.53;;;;;;;;;;7400136;19;20018;-81
2022/04/23 01:47:15;;;;;;;6.03;4.32;;;;;;;;;;7403667;19;20014;-82
2022/04/23 01:49:42;;;;;;;6.13;4.32;;;;;;;;;;7401369;19;20014;-81
2022/04/23 01:52:08;;;;;;;5.57;3.90;;;;;;;;;;7401342;19;20014;-80
2022/04/23 01:54:34;;;;;;;6.45;3.80;;;;;;;;;;7400203;19;20032;-79
2022/04/23 01:57:00;;;;;;;6.65;4.28;;;;;;;;;;7401003;19;20010;-82
2022/04/23 01:59:25;;;;;;;5.13;3.95;;;;;;;;;;7401057;19;20023;-82
2022/04/23 02:01:51;;;;;;;5.63;4.13;;;;;;;;;;7401186;19;20538;-83
2022/04/23 02:04:17;;;;;;;6.10;4.03;;;;;;;;;;7398949;19;20007;-82
2022/04/23 02:06:43;;;;;;;6.22;4.28;;;;;;;;;;7399715;19;20017;-81
2022/04/23 02:09:08;;;;;;;4.80;3.83;;;;;;;;;;7402409;19;20324;-82
2022/04/23 02:11:33;;;;;;;5.40;3.97;;;;;;;;;;7401828;19;20010;-81
2022/04/23 02:13:58;;;;;;;5.05;3.92;;;;;;;;;;7399488;19;20130;-81
2022/04/23 02:16:25;;;;;;;5.78;3.92;;;;;;;;;;7404303;19;20014;-81
2022/04/23 02:18:51;;;;;;;4.78;3.95;;;;;;;;;;7396526;19;20543;-82
2022/04/23 02:21:16;;;;;;;5.20;4.05;;;;;;;;;;7402878;19;20022;-80
2022/04/23 02:23:43;;;;;;;5.10;3.83;;;;;;;;;;7393243;19;20254;-81
2022/04/23 02:26:08;;;;;;;5.43;3.92;;;;;;;;;;7399245;19;20007;-80
2022/04/23 02:28:33;;;;;;;5.22;3.90;;;;;;;;;;7396064;19;20034;-81
2022/04/23 02:30:58;;;;;;;4.20;3.55;;;;;;;;;;7397198;19;20435;-81
2022/04/23 02:33:24;;;;;;;5.22;3.70;;;;;;;;;;7397995;19;20069;-82
2022/04/23 02:35:50;;;;;;;6.05;4.00;;;;;;;;;;7396069;19;20038;-81
2022/04/23 02:38:17;;;;;;;4.25;3.38;;;;;;;;;;7396811;19;20114;-80
2022/04/23 02:40:42;;;;;;;5.18;3.90;;;;;;;;;;7397508;19;20035;-81
2022/04/23 02:43:08;;;;;;;5.65;3.88;;;;;;;;;;7395624;19;20007;-82
2022/04/23 02:45:36;;;;;;;6.47;4.13;;;;;;;;;;7397966;19;20118;-81
2022/04/23 02:48:01;;;;;;;6.45;4.28;;;;;;;;;;7397945;19;20078;-81
2022/04/23 02:50:36;;;;;;;5.68;3.75;;;;;;;;;;7394414;19;20024;-82
2022/04/23 02:53:02;;;;;;;5.95;4.53;;;;;;;;;;7397462;19;20010;-78
2022/04/23 02:55:30;;;;;;;4.60;3.83;;;;;;;;;;7400218;19;20027;-82
2022/04/23 02:57:56;;;;;;;5.35;4.05;;;;;;;;;;7397782;19;20002;-82
2022/04/23 03:00:22;;;;;;;6.53;4.70;;;;;;;;;;7394983;19;20022;-81
2022/04/23 03:02:47;;;;;;;7.15;4.55;;;;;;;;;;7397226;19;20006;-81
2022/04/23 03:05:17;;;;;;;6.00;4.32;;;;;;;;;;7396505;19;20022;-81
2022/04/23 03:07:43;;;;;;;6.82;4.53;;;;;;;;;;7397621;19;20011;-80
2022/04/23 03:10:10;;;;;;;6.80;4.55;;;;;;;;;;7398443;19;20011;-81
2022/04/23 03:12:36;;;;;;;7.55;4.03;;;;;;;;;;7393019;19;20018;-82
2022/04/23 03:15:05;;;;;;;7.13;4.53;;;;;;;;;;7400360;19;20018;-82
2022/04/23 03:17:31;;;;;;;5.88;4.30;;;;;;;;;;7400933;19;20038;-81
2022/04/23 03:19:57;;;;;;;8.77;4.13;;;;;;;;;;7398511;19;20031;-81
2022/04/23 03:22:23;;;;;;;6.25;4.03;;;;;;;;;;7399041;19;20104;-81
2022/04/23 03:24:48;;;;;;;7.32;4.38;;;;;;;;;;7397529;19;20026;-82
2022/04/23 03:27:13;;;;;;;6.88;4.40;;;;;;;;;;7399961;19;20676;-82
2022/04/23 03:29:39;;;;;;;7.57;4.85;;;;;;;;;;7398565;19;20126;-80
2022/04/23 03:32:05;;;;;;;7.57;4.50;;;;;;;;;;7400444;19;20014;-80
2022/04/23 03:34:31;;;;;;;7.38;4.68;;;;;;;;;;7398997;19;20690;-81
2022/04/23 03:36:56;;;;;;;6.57;4.57;;;;;;;;;;7401837;19;20013;-82
2022/04/23 03:39:21;;;;;;;6.88;4.53;;;;;;;;;;7420832;19;20069;-79
2022/04/23 03:41:46;;;;;;;6.45;4.38;;;;;;;;;;7423931;19;20003;-79
2022/04/23 03:44:12;;;;;;;8.05;4.72;;;;;;;;;;7426801;19;20381;-79
2022/04/23 03:46:37;;;;;;;7.28;4.82;;;;;;;;;;7427275;19;19994;-78
2022/04/23 03:49:03;;;;;;;5.63;3.80;;;;;;;;;;7415077;19;20007;-82
2022/04/23 03:51:28;;;;;;;7.95;4.47;;;;;;;;;;7394953;19;20459;-80
2022/04/23 03:53:53;;;;;;;6.88;4.20;;;;;;;;;;7395635;19;20085;-81
2022/04/23 03:56:18;;;;;;;7.93;4.63;;;;;;;;;;7395873;19;20014;-82
2022/04/23 03:58:44;;;;;;;6.28;4.40;;;;;;;;;;7394643;19;20010;-80
2022/04/23 04:01:09;;;;;;;8.95;4.75;;;;;;;;;;7392781;19;20410;-81
2022/04/23 04:03:35;;;;;;;7.22;4.57;;;;;;;;;;7393726;19;20544;-81
2022/04/23 04:06:00;;;;;;;7.75;4.07;;;;;;;;;;7394617;19;20074;-80
2022/04/23 04:08:26;;;;;;;5.68;3.92;;;;;;;;;;7394119;19;20331;-82
2022/04/23 04:10:51;;;;;;;6.65;4.18;;;;;;;;;;7392838;19;20006;-82
2022/04/23 04:13:16;;;;;;;6.47;4.28;;;;;;;;;;7393302;19;20018;-80
2022/04/23 04:15:43;;;;;;;7.97;4.03;;;;;;;;;;7390945;19;20043;-82
2022/04/23 04:18:11;;;;;;;7.70;4.93;;;;;;;;;;7393221;19;20637;-81
2022/04/23 04:20:37;;;;;;;7.13;4.40;;;;;;;;;;7393165;19;20007;-82
2022/04/23 04:23:02;;;;;;;7.25;4.95;;;;;;;;;;7391966;19;20016;-81
2022/04/23 04:25:27;;;;;;;7.50;4.50;;;;;;;;;;7395736;19;20009;-81
2022/04/23 04:27:53;;;;;;;6.78;4.28;;;;;;;;;;7393201;19;20517;-81
2022/04/23 04:30:18;;;;;;;6.00;4.30;;;;;;;;;;7392781;19;20038;-81
2022/04/23 04:32:44;;;;;;;6.63;4.70;;;;;;;;;;7390385;19;20039;-82
2022/04/23 04:35:10;;;;;;;6.65;4.88;;;;;;;;;;7393357;19;20010;-80
2022/04/23 04:37:36;;;;;;;8.82;4.43;;;;;;;;;;7395381;19;20002;-81
2022/04/23 04:40:03;;;;;;;6.28;4.38;;;;;;;;;;7393453;19;20027;-81
2022/04/23 04:42:29;;;;;;;8.38;4.90;;;;;;;;;;7389594;19;20469;-81
2022/04/23 04:44:54;;;;;;;8.18;4.78;;;;;;;;;;7392095;19;20066;-80
2022/04/23 04:47:20;;;;;;;6.55;4.45;;;;;;;;;;7394107;19;20010;-82
2022/04/23 04:49:45;;;;;;;6.90;4.88;;;;;;;;;;7390337;19;20082;-80
2022/04/23 04:52:10;;;;;;;6.65;4.63;;;;;;;;;;7388192;19;20011;-82
2022/04/23 04:54:36;;;;;;;7.13;4.85;;;;;;;;;;7393731;19;20010;-79
2022/04/23 04:57:02;;;;;;;7.90;4.40;;;;;;;;;;7393536;19;20006;-81
2022/04/23 04:59:29;;;;;;;6.45;4.55;;;;;;;;;;7389877;19;20021;-79
2022/04/23 05:01:55;;;;;;;6.88;4.60;;;;;;;;;;7385907;19;20019;-80
2022/04/23 05:04:20;;;;;;;7.93;4.82;;;;;;;;;;7389542;19;20533;-78
2022/04/23 05:06:46;;;;;;;7.68;5.05;;;;;;;;;;7396131;19;20173;-80
2022/04/23 05:09:12;;;;;;;8.93;5.30;;;;;;;;;;7397648;19;20039;-81
2022/04/23 05:11:38;;;;;;;8.77;5.20;;;;;;;;;;7400691;19;19997;-79
2022/04/23 05:14:03;;;;;;;6.63;5.20;;;;;;;;;;7397154;19;20016;-79
2022/04/23 05:16:28;;;;;;;8.63;5.53;;;;;;;;;;7399112;19;20006;-79
2022/04/23 05:18:54;;;;;;;9.20;5.55;;;;;;;;;;7401241;19;20078;-79
2022/04/23 05:21:19;;;;;;;8.07;4.75;;;;;;;;;;7398705;19;20496;-78
2022/04/23 05:23:44;;;;;;;8.48;5.13;;;;;;;;;;7399028;19;20014;-80
2022/04/23 05:26:10;;;;;;;8.00;4.85;;;;;;;;;;7402240;19;20015;-78
2022/04/23 05:28:36;;;;;;;7.13;4.93;;;;;;;;;;7402345;19;19998;-79
2022/04/23 05:31:03;;;;;;;7.25;5.07;;;;;;;;;;7397777;19;20010;-79
2022/04/23 05:33:28;;;;;;;8.48;4.75;;;;;;;;;;7398116;19;20066;-78
2022/04/23 05:35:53;;;;;;;6.82;5.03;;;;;;;;;;7399871;19;20035;-79
2022/04/23 05:38:22;;;;;;;7.15;4.90;;;;;;;;;;7397156;19;20021;-78
2022/04/23 05:40:48;;;;;;;7.55;4.97;;;;;;;;;;7401756;19;20444;-80
2022/04/23 05:43:14;;;;;;;7.53;4.45;;;;;;;;;;7398812;19;20031;-79
2022/04/23 05:45:39;;;;;;;7.95;5.13;;;;;;;;;;7397060;19;20018;-78
2022/04/23 05:48:04;;;;;;;9.88;5.30;;;;;;;;;;7400345;19;20007;-79
2022/04/23 05:50:30;;;;;;;7.78;5.57;;;;;;;;;;7394065;19;20017;-79
2022/04/23 05:52:55;;;;;;;8.25;5.30;;;;;;;;;;7396674;19;20021;-78
2022/04/23 05:55:21;;;;;;;9.05;5.45;;;;;;;;;;7398850;19;20213;-79
2022/04/23 05:57:47;;;;;;;11.75;7.15;;;;;;;;;;7398579;19;20340;-78
2022/04/23 06:00:13;;;;;;;9.27;6.13;;;;;;;;;;7398040;19;20007;-79
2022/04/23 06:02:38;;;;;;;8.55;5.55;;;;;;;;;;7393495;19;20014;-78
2022/04/23 06:05:04;;;;;;;9.85;6.07;;;;;;;;;;7393627;19;20039;-79
2022/04/23 06:07:30;;;;;;;14.55;6.40;;;;;;;;;;7394553;19;20014;-79
2022/04/23 06:09:56;;;;;;;9.90;6.05;;;;;;;;;;7395629;19;20018;-80
2022/04/23 06:12:22;;;;;;;8.82;5.68;;;;;;;;;;7397730;19;20016;-80
2022/04/23 06:14:49;;;;;;;10.95;6.20;;;;;;;;;;7392225;19;20470;-79
2022/04/23 06:17:14;;;;;;;9.77;5.63;;;;;;;;;;7397346;19;20314;-79
2022/04/23 06:19:40;;;;;;;16.13;9.02;;;;;;;;;;7398374;19;20439;-79
2022/04/23 06:22:06;;;;;;;9.02;5.65;;;;;;;;;;7394235;19;20006;-79
2022/04/23 06:24:32;;;;;;;8.40;5.55;;;;;;;;;;7396594;19;20014;-79
2022/04/23 06:26:58;;;;;;;7.07;4.43;;;;;;;;;;7397489;19;20021;-79
2022/04/23 06:29:23;;;;;;;9.75;5.03;;;;;;;;;;7396948;19;20458;-81
2022/04/23 06:31:49;;;;;;;7.60;5.22;;;;;;;;;;7392951;19;20028;-78
2022/04/23 06:34:14;;;;;;;9.05;4.95;;;;;;;;;;7397635;19;20058;-79
2022/04/23 06:36:40;;;;;;;6.75;4.82;;;;;;;;;;7393716;19;21618;-78
2022/04/23 06:39:06;;;;;;;7.57;4.80;;;;;;;;;;7395378;19;20020;-79
2022/04/23 06:41:32;;;;;;;9.43;5.20;;;;;;;;;;7393202;19;20017;-77
2022/04/23 06:43:57;;;;;;;8.00;5.35;;;;;;;;;;7391525;19;20006;-77
2022/04/23 06:46:22;;;;;;;7.82;5.05;;;;;;;;;;7395262;19;20478;-80
2022/04/23 06:48:48;;;;;;;7.68;5.30;;;;;;;;;;7395431;19;20074;-79
2022/04/23 06:51:13;;;;;;;7.70;4.65;;;;;;;;;;7392553;19;20022;-79
2022/04/23 06:53:38;;;;;;;10.60;6.40;;;;;;;;;;7389738;19;20030;-80
2022/04/23 06:56:04;;;;;;;9.18;5.78;;;;;;;;;;7397296;19;20014;-79
2022/04/23 06:58:30;;;;;;;8.40;5.97;;;;;;;;;;7399023;19;20507;-80
2022/04/23 07:00:56;;;;;;;10.15;5.95;;;;;;;;;;7395213;19;20003;-79
2022/04/23 07:03:22;;;;;;;9.80;5.88;;;;;;;;;;7394826;19;20018;-78
2022/04/23 07:05:47;;;;;;;7.60;5.22;;;;;;;;;;7395562;19;20475;-81
2022/04/23 07:08:12;;;;;;;9.88;5.32;;;;;;;;;;7398281;19;20035;-83
2022/04/23 07:10:38;;;;;;;10.27;6.57;;;;;;;;;;7390822;19;20002;-81
2022/04/23 07:13:04;;;;;;;12.55;6.20;;;;;;;;;;7392768;19;20357;-81
2022/04/23 07:15:30;;;;;;;11.85;6.60;;;;;;;;;;7396202;19;20014;-80
2022/04/23 07:17:55;;;;;;;11.88;6.15;;;;;;;;;;7395357;19;20007;-79
2022/04/23 07:20:21;;;;;;;6.55;5.07;;;;;;;;;;7394778;19;20014;-80
2022/04/23 07:25:33;;;;;;;7.75;5.03;;;;;;;;;;7396889;19;20014;-81
2022/04/23 07:27:59;;;;;;;7.57;5.18;;;;;;;;;;7396102;19;20467;-81
2022/04/23 07:30:25;;;;;;;7.88;5.50;;;;;;;;;;7392224;19;20010;-81
2022/04/23 07:32:54;;;;;;;6.82;4.88;;;;;;;;;;7393589;19;20488;-81
2022/04/23 07:38:16;;;;;;;7.22;5.43;;;;;;;;;;7401277;19;20041;-83
2022/04/23 07:40:43;;;;;;;8.05;5.93;;;;;;;;;;7402512;19;20018;-81
2022/04/23 07:43:10;;;;;;;9.48;5.07;;;;;;;;;;7400786;19;20368;-83
2022/04/23 07:45:37;;;;;;;21.38;10.70;;;;;;;;;;7404589;19;20807;-79
2022/04/23 07:48:04;;;;;;;9.05;5.97;;;;;;;;;;7397961;19;20015;-79
2022/04/23 07:50:29;;;;;;;11.18;6.55;;;;;;;;;;7400894;19;20078;-81
2022/04/23 07:52:54;;;;;;;7.65;5.53;;;;;;;;;;7399932;19;20018;-81
2022/04/23 07:55:20;;;;;;;9.05;5.68;;;;;;;;;;7402324;19;20006;-82
2022/04/23 07:57:45;;;;;;;7.88;5.05;;;;;;;;;;7403529;19;20502;-81
2022/04/23 08:00:11;;;;;;;10.13;6.47;;;;;;;;;;7398160;19;20014;-80
2022/04/23 08:02:36;;;;;;;7.88;5.57;;;;;;;;;;7397497;19;20018;-80
2022/04/23 08:05:01;;;;;;;10.20;5.75;;;;;;;;;;7391456;19;20014;-81
2022/04/23 08:07:27;;;;;;;11.35;6.13;;;;;;;;;;7393593;19;20019;-81
2022/04/23 08:09:52;;;;;;;8.00;5.80;;;;;;;;;;7394848;19;20589;-81
2022/04/23 08:12:18;;;;;;;8.68;5.65;;;;;;;;;;7390671;19;20014;-83
2022/04/23 08:14:43;;;;;;;8.35;5.88;;;;;;;;;;7392956;19;20422;-81
2022/04/23 08:17:08;;;;;;;13.02;6.75;;;;;;;;;;7394442;19;20019;-82
2022/04/23 08:19:33;;;;;;;9.57;5.70;;;;;;;;;;7396212;19;20043;-84
2022/04/23 08:21:59;;;;;;;7.88;5.38;;;;;;;;;;7390983;19;20011;-82
2022/04/23 08:24:24;;;;;;;7.68;5.43;;;;;;;;;;7395774;19;20007;-82
2022/04/23 08:26:49;;;;;;;9.95;5.70;;;;;;;;;;7389380;19;20018;-82
2022/04/23 08:31:59;;;;;;;8.35;5.82;;;;;;;;;;7390210;19;20370;-81
2022/04/23 08:34:24;;;;;;;9.23;6.43;;;;;;;;;;7388747;19;19999;-79
2022/04/23 08:36:50;;;;;;;12.80;6.65;;;;;;;;;;7390313;19;20105;-81
2022/04/23 08:39:16;;;;;;;10.45;5.82;;;;;;;;;;7383865;19;20007;-81
2022/04/23 08:41:45;;;;;;;9.00;6.32;;;;;;;;;;7384924;19;20092;-80
2022/04/23 08:44:10;;;;;;;8.60;5.38;;;;;;;;;;7390209;19;20006;-82
2022/04/23 08:46:39;;;;;;;8.18;5.88;;;;;;;;;;7391595;19;20467;-80
2022/04/23 08:49:16;;;;;;;9.57;5.68;;;;;;;;;;7391904;19;20025;-80
2022/04/23 08:51:50;;;;;;;8.13;5.15;;;;;;;;;;7384993;19;20411;-81
2022/04/23 08:54:16;;;;;;;9.05;6.03;;;;;;;;;;7388569;19;20014;-81
2022/04/23 08:56:43;;;;;;;15.23;8.25;;;;;;;;;;7386790;19;20070;-81
2022/04/23 08:59:11;;;;;;;12.32;5.95;;;;;;;;;;7390949;19;20002;-83
2022/04/23 09:01:44;;;;;;;7.53;5.43;;;;;;;;;;7388950;19;20052;-83
2022/04/23 09:04:11;;;;;;;10.07;6.25;;;;;;;;;;7389048;19;19999;-82
2022/04/23 09:06:43;;;;;;;9.27;5.90;;;;;;;;;;7390044;19;20010;-83
2022/04/23 09:09:13;;;;;;;6.57;5.07;;;;;;;;;;7388879;19;20035;-86
2022/04/23 09:11:49;;;;;;;8.35;5.60;;;;;;;;;;7391002;19;20029;-83
2022/04/23 09:14:27;;;;;;;8.38;5.90;;;;;;;;;;7387265;19;20033;-84
2022/04/23 09:25:30;;;;;;;7.25;5.25;;;;;;;;;;7392029;19;20030;-84
2022/04/23 09:27:55;;;;;;;6.82;5.18;;;;;;;;;;7389080;19;20010;-81
2022/04/23 09:30:20;;;;;;;7.88;5.00;;;;;;;;;;7388064;19;20015;-82
2022/04/23 09:33:00;;;;;;;7.75;5.60;;;;;;;;;;7384146;19;20444;-82
2022/04/23 09:35:25;;;;;;;10.43;6.82;;;;;;;;;;7389438;19;20010;-81
2022/04/23 09:40:35;;;;;;;7.68;5.38;;;;;;;;;;7383585;19;20009;-82
2022/04/23 09:43:02;;;;;;;11.73;6.65;;;;;;;;;;7385161;19;19990;-83
2022/04/23 09:45:29;;;;;;;9.43;6.30;;;;;;;;;;7389345;19;20011;-82
2022/04/23 09:48:15;;;;;;;9.93;6.53;;;;;;;;;;7389864;19;20002;-82
2022/04/23 09:50:42;;;;;;;10.30;6.70;;;;;;;;;;7388899;19;20013;-81
2022/04/23 09:53:18;;;;;;;9.63;5.90;;;;;;;;;;7396403;19;20333;-82
2022/04/23 09:55:48;;;;;;;8.35;5.38;;;;;;;;;;7395007;19;19995;-83
2022/04/23 09:58:14;;;;;;;9.15;6.18;;;;;;;;;;7395842;19;20114;-82
2022/04/23 10:00:42;;;;;;;18.67;6.00;;;;;;;;;;7397563;19;20121;-82
2022/04/23 10:03:09;;;;;;;8.30;6.07;;;;;;;;;;7390465;19;20002;-82
2022/04/23 10:05:41;;;;;;;10.38;6.28;;;;;;;;;;7393572;19;20006;-82
2022/04/23 10:08:14;;;;;;;10.20;7.05;;;;;;;;;;7394488;19;20550;-82
2022/04/23 10:10:59;;;;;;;9.35;5.88;;;;;;;;;;7394653;19;20006;-82
2022/04/23 10:13:28;;;;;;;10.73;6.63;;;;;;;;;;7394055;19;20133;-82
2022/04/23 10:15:54;;;;;;;11.60;6.65;;;;;;;;;;7397923;19;20014;-83
2022/04/23 10:18:21;;;;;;;10.45;5.80;;;;;;;;;;7396799;19;19999;-82
2022/04/23 10:20:54;;;;;;;9.55;6.65;;;;;;;;;;7393838;19;20010;-82
2022/04/23 10:23:46;;;;;;;16.13;5.85;;;;;;;;;;7394180;19;20117;-82
2022/04/23 10:26:40;;;;;;;7.97;5.63;;;;;;;;;;7397592;19;20011;-83
2022/04/23 10:29:20;;;;;;;10.90;6.15;;;;;;;;;;7397134;19;20013;-82
2022/04/23 10:32:11;;;;;;;9.80;6.50;;;;;;;;;;7396601;19;20023;-83
2022/04/23 10:34:38;;;;;;;9.23;5.90;;;;;;;;;;7392497;19;20002;-83
2022/04/23 10:37:24;;;;;;;16.05;9.27;;;;;;;;;;7397256;19;20010;-83
2022/04/23 10:39:52;;;;;;;9.52;6.60;;;;;;;;;;7397025;19;20118;-83
2022/04/23 10:42:26;;;;;;;12.95;7.55;;;;;;;;;;7396987;19;19998;-82
2022/04/23 10:44:56;;;;;;;11.45;6.50;;;;;;;;;;7411456;19;20014;-82
2022/04/23 10:47:30;;;;;;;12.85;6.55;;;;;;;;;;7424093;19;20011;-81
2022/04/23 10:50:23;;;;;;;11.70;6.83;;;;;;;;;;7419860;19;19987;-81
2022/04/23 10:52:50;;;;;;;9.48;6.05;;;;;;;;;;7421159;19;20042;-81
2022/04/23 10:55:16;;;;;;;13.85;7.05;;;;;;;;;;7409883;19;20062;-82
2022/04/23 10:57:51;;;;;;;12.88;8.20;;;;;;;;;;7394676;19;20014;-82
2022/04/23 11:00:22;;;;;;;11.50;7.35;;;;;;;;;;7393964;19;20006;-82
2022/04/23 11:02:54;;;;;;;11.40;7.13;;;;;;;;;;7393162;19;19998;-83
2022/04/23 11:13:49;;;;;;;10.48;7.00;;;;;;;;;;7390378;19;20307;-81
2022/04/23 11:16:17;;;;;;;11.68;7.25;;;;;;;;;;7394459;19;20082;-82
2022/04/23 11:18:44;;;;;;;12.20;6.70;;;;;;;;;;7393219;19;20007;-83
2022/04/23 11:21:17;;;;;;;11.98;7.03;;;;;;;;;;7391516;19;20444;-83
2022/04/23 11:23:45;;;;;;;12.32;7.63;;;;;;;;;;7390709;19;20058;-82
2022/04/23 11:26:18;;;;;;;13.43;7.50;;;;;;;;;;7391545;19;20031;-82
2022/04/23 11:28:45;;;;;;;11.95;7.63;;;;;;;;;;7391205;19;20015;-83
2022/04/23 11:31:16;;;;;;;15.05;8.52;;;;;;;;;;7392349;19;20403;-82
2022/04/23 11:33:54;;;;;;;12.10;8.00;;;;;;;;;;7393196;19;20002;-82
2022/04/23 11:36:24;;;;;;;10.77;7.78;;;;;;;;;;7390952;19;20006;-83
2022/04/23 11:38:50;;;;;;;15.35;7.57;;;;;;;;;;7391325;19;20491;-82
2022/04/23 11:41:26;;;;;;;16.17;8.65;;;;;;;;;;7388297;19;19994;-82
2022/04/23 11:43:51;;;;;;;21.85;8.23;;;;;;;;;;7389488;19;20006;-82
2022/04/23 11:46:16;;;;;;;11.48;7.43;;;;;;;;;;7402959;19;20019;-82
2022/04/23 11:48:50;;;;;;;12.27;8.10;;;;;;;;;;7392377;19;20143;-82
2022/04/23 11:51:18;;;;;;;11.35;7.40;;;;;;;;;;7390042;19;20361;-82
2022/04/23 11:53:53;;;;;;;11.70;8.13;;;;;;;;;;7390205;19;20010;-83
2022/04/23 11:56:37;;;;;;;13.32;7.47;;;;;;;;;;7390533;19;20050;-80
2022/04/23 11:59:09;;;;;;;12.43;7.82;;;;;;;;;;7392628;19;20794;-80
2022/04/23 12:01:34;;;;;;;12.50;8.15;;;;;;;;;;7388936;19;20014;-83
2022/04/23 12:03:59;;;;;;;11.85;8.20;;;;;;;;;;7389772;19;20014;-82
2022/04/23 12:06:26;;;;;;;11.55;7.78;;;;;;;;;;7389698;19;20056;-80
2022/04/23 12:09:03;;;;;;;12.93;8.45;;;;;;;;;;7390441;19;20139;-80
2022/04/23 12:11:28;;;;;;;12.80;7.65;;;;;;;;;;7390567;19;20077;-79
2022/04/23 12:13:54;;;;;;;12.50;8.10;;;;;;;;;;7385955;19;21066;-81
2022/04/23 12:16:37;;;;;;;12.77;7.65;;;;;;;;;;7390817;19;20229;-82
2022/04/23 12:19:03;;;;;;;13.52;8.15;;;;;;;;;;7390962;19;20014;-82
2022/04/23 12:21:30;;;;;;;10.48;6.93;;;;;;;;;;7392354;19;20022;-81
2022/04/23 12:23:55;;;;;;;11.90;7.88;;;;;;;;;;7389331;19;20070;-81
2022/04/23 12:26:22;;;;;;;14.07;8.65;;;;;;;;;;7391469;19;20023;-81
2022/04/23 12:42:27;;;;;;;13.13;8.35;;;;;;;;;;7384958;19;20170;-81
2022/04/23 12:44:53;;;;;;;12.73;8.02;;;;;;;;;;7388577;19;20010;-80
2022/04/23 12:47:34;;;;;;;11.55;7.90;;;;;;;;;;7391699;19;20006;-80
2022/04/23 12:50:02;;;;;;;11.48;7.80;;;;;;;;;;7389143;19;20139;-81
2022/04/23 12:52:41;;;;;;;13.77;8.32;;;;;;;;;;7391342;19;20018;-80
2022/04/23 12:55:22;;;;;;;12.23;7.35;;;;;;;;;;7389567;19;20115;-80
2022/04/23 12:57:54;;;;;;;11.18;6.97;;;;;;;;;;7387224;19;20007;-80
2022/04/23 13:00:24;;;;;;;11.75;7.82;;;;;;;;;;7379946;19;20014;-79
2022/04/23 13:02:59;;;;;;;11.25;7.55;;;;;;;;;;7378853;19;20006;-80
2022/04/23 13:05:26;;;;;;;18.15;8.27;;;;;;;;;;7389715;19;20011;-79
2022/04/23 13:10:36;;;;;;;14.07;7.90;;;;;;;;;;7388352;19;20018;-81
2022/04/23 13:13:02;;;;;;;10.23;7.85;;;;;;;;;;7387421;19;20006;-79
2022/04/23 13:15:28;;;;;;;14.27;7.05;;;;;;;;;;7392409;19;19994;-79
2022/04/23 13:17:54;;;;;;;10.38;7.07;;;;;;;;;;7386809;19;20020;-79
2022/04/23 13:20:20;;;;;;;15.35;9.40;;;;;;;;;;7388117;19;20027;-79
2022/04/23 13:22:46;;;;;;;15.95;7.72;;;;;;;;;;7384627;19;20078;-81
2022/04/23 13:25:17;;;;;;;13.00;7.93;;;;;;;;;;7392033;19;20042;-79
2022/04/23 13:27:43;;;;;;;10.32;7.20;;;;;;;;;;7396417;19;20466;-80
2022/04/23 13:30:10;;;;;;;12.18;9.23;;;;;;;;;;7393395;19;20003;-79
2022/04/23 13:32:39;;;;;;;11.18;7.65;;;;;;;;;;7398966;19;20026;-80
2022/04/23 13:35:06;;;;;;;10.20;7.78;;;;;;;;;;7399094;19;20674;-81
2022/04/23 13:37:31;;;;;;;11.57;8.35;;;;;;;;;;7399168;19;20014;-81
2022/04/23 13:39:57;;;;;;;11.68;7.55;;;;;;;;;;7395797;19;20093;-81
2022/04/23 13:42:24;;;;;;;12.80;8.32;;;;;;;;;;7390588;19;20443;-82
2022/04/23 13:44:50;;;;;;;11.13;7.18;;;;;;;;;;7391370;19;20013;-81
2022/04/23 13:47:16;;;;;;;12.63;8.55;;;;;;;;;;7388854;19;20105;-80
2022/04/23 13:49:42;;;;;;;11.40;7.95;;;;;;;;;;7394491;19;20410;-81
2022/04/23 13:52:08;;;;;;;11.80;8.90;;;;;;;;;;7395288;19;20387;-80
2022/04/23 13:54:33;;;;;;;13.52;8.52;;;;;;;;;;7403224;19;20006;-79
2022/04/23 13:57:00;;;;;;;12.18;8.40;;;;;;;;;;7399174;19;20002;-82
2022/04/23 13:59:29;;;;;;;17.52;10.68;;;;;;;;;;7399114;19;20018;-81
2022/04/23 14:10:07;;;;;;;9.95;7.30;;;;;;;;;;7396627;19;20841;-81
2022/04/23 14:12:36;;;;;;;9.98;7.85;;;;;;;;;;7393218;19;20037;-81
2022/04/23 14:15:02;;;;;;;10.60;8.27;;;;;;;;;;7395101;19;20525;-79
2022/04/23 14:17:27;;;;;;;11.00;6.93;;;;;;;;;;7398595;19;20006;-78
2022/04/23 14:19:56;;;;;;;10.30;7.63;;;;;;;;;;7398327;19;20002;-80
2022/04/23 14:22:22;;;;;;;11.02;8.02;;;;;;;;;;7400115;19;20006;-80
2022/04/23 14:24:47;;;;;;;11.80;7.28;;;;;;;;;;7402959;19;20035;-82
2022/04/23 14:27:12;;;;;;;13.63;7.45;;;;;;;;;;7402290;19;20002;-83
2022/04/23 14:29:38;;;;;;;13.50;8.13;;;;;;;;;;7398663;19;20035;-81
2022/04/23 14:32:04;;;;;;;10.82;7.10;;;;;;;;;;7398199;19;20546;-80
2022/04/23 14:34:29;;;;;;;12.70;7.10;;;;;;;;;;7395838;19;20481;-80
2022/04/23 14:36:54;;;;;;;9.70;7.22;;;;;;;;;;7395163;19;20313;-81
2022/04/23 14:39:20;;;;;;;10.18;7.05;;;;;;;;;;7400373;19;20071;-82
2022/04/23 14:41:45;;;;;;;9.73;7.13;;;;;;;;;;7395913;19;20006;-81
2022/04/23 14:44:10;;;;;;;11.18;7.22;;;;;;;;;;7395799;19;20034;-81
2022/04/23 14:46:35;;;;;;;8.05;6.57;;;;;;;;;;7396916;19;20034;-80
2022/04/23 14:49:01;;;;;;;7.60;6.40;;;;;;;;;;7394310;19;20010;-80
2022/04/23 14:54:10;;;;;;;8.85;6.57;;;;;;;;;;7397732;19;20358;-80
2022/04/23 14:56:37;;;;;;;10.63;6.95;;;;;;;;;;7398645;19;20010;-80
2022/04/23 14:59:02;;;;;;;9.80;6.80;;;;;;;;;;7396791;19;20010;-82
2022/04/23 15:01:28;;;;;;;7.85;6.18;;;;;;;;;;7397135;19;20851;-80
2022/04/23 15:03:53;;;;;;;13.02;6.78;;;;;;;;;;7400490;19;20049;-80
2022/04/23 15:06:21;;;;;;;9.55;6.32;;;;;;;;;;7399240;19;20026;-81
2022/04/23 15:08:47;;;;;;;9.23;6.63;;;;;;;;;;7401953;19;20021;-84
2022/04/23 15:11:12;;;;;;;9.32;6.43;;;;;;;;;;7395718;19;20003;-83
2022/04/23 15:13:38;;;;;;;12.57;6.47;;;;;;;;;;7397835;19;20010;-81
2022/04/23 15:16:04;;;;;;;9.55;6.32;;;;;;;;;;7397577;19;20459;-81
2022/04/23 15:18:30;;;;;;;8.73;6.10;;;;;;;;;;7396122;19;20020;-81
2022/04/23 15:20:58;;;;;;;8.70;5.32;;;;;;;;;;7396372;19;20095;-82
2022/04/23 15:23:23;;;;;;;8.13;6.00;;;;;;;;;;7395547;19;20194;-81
2022/04/23 15:25:50;;;;;;;9.68;5.55;;;;;;;;;;7392676;19;20002;-82
2022/04/23 15:28:16;;;;;;;7.90;5.78;;;;;;;;;;7395725;19;20111;-82
2022/04/23 15:30:42;;;;;;;8.02;6.18;;;;;;;;;;7394782;19;20639;-82
2022/04/23 15:33:07;;;;;;;8.38;6.38;;;;;;;;;;7394186;19;20335;-79
2022/04/23 15:35:32;;;;;;;9.77;6.47;;;;;;;;;;7398163;19;20031;-80